sensor_id;sensor_type;location;lat;lon;timestamp;P1;durP1;ratioP1;P2;durP2;ratioP2
77984;SDS011;67177;47.240;-1.546;2024-02-16T00:01:18;9.50;;;2.50;;
77984;SDS011;67177;47.240;-1.546;2024-02-16T00:03:43;10.48;;;2.50;;
77984;SDS011;67177;47.240;-1.546;2024-02-16T00:06:09;7.77;;;1.83;;
77984;SDS011;67177;47.240;-1.546;2024-02-16T00:08:36;7.63;;;2.00;;
77984;SDS011;67177;47.240;-1.546;2024-02-16T00:11:04;6.53;;;1.67;;
77984;SDS011;67177;47.240;-1.546;2024-02-16T00:13:32;6.33;;;1.60;;
77984;SDS011;67177;47.240;-1.546;2024-02-16T00:15:58;7.60;;;2.00;;
77984;SDS011;67177;47.240;-1.546;2024-02-16T00:18:23;6.57;;;1.97;;
77984;SDS011;67177;47.240;-1.546;2024-02-16T00:20:49;8.15;;;1.60;;
77984;SDS011;67177;47.240;-1.546;2024-02-16T00:23:15;9.27;;;2.13;;
77984;SDS011;67177;47.240;-1.546;2024-02-16T00:25:41;7.30;;;2.20;;
77984;SDS011;67177;47.240;-1.546;2024-02-16T00:28:07;7.68;;;2.10;;
77984;SDS011;67177;47.240;-1.546;2024-02-16T00:30:33;7.80;;;1.92;;
77984;SDS011;67177;47.240;-1.546;2024-02-16T00:32:59;12.20;;;2.90;;
77984;SDS011;67177;47.240;-1.546;2024-02-16T00:35:26;12.07;;;3.00;;
77984;SDS011;67177;47.240;-1.546;2024-02-16T00:37:51;8.40;;;2.08;;
77984;SDS011;67177;47.240;-1.546;2024-02-16T00:40:17;14.57;;;3.30;;
77984;SDS011;67177;47.240;-1.546;2024-02-16T00:42:42;9.95;;;2.15;;
77984;SDS011;67177;47.240;-1.546;2024-02-16T00:45:08;8.80;;;1.93;;
77984;SDS011;67177;47.240;-1.546;2024-02-16T00:47:34;8.52;;;2.00;;
77984;SDS011;67177;47.240;-1.546;2024-02-16T00:50:00;7.20;;;1.90;;
77984;SDS011;67177;47.240;-1.546;2024-02-16T00:52:25;8.63;;;2.00;;
77984;SDS011;67177;47.240;-1.546;2024-02-16T00:54:51;8.73;;;1.97;;
77984;SDS011;67177;47.240;-1.546;2024-02-16T00:57:17;8.77;;;2.28;;
77984;SDS011;67177;47.240;-1.546;2024-02-16T00:59:42;8.00;;;2.03;;
77984;SDS011;67177;47.240;-1.546;2024-02-16T01:02:08;9.63;;;2.20;;
77984;SDS011;67177;47.240;-1.546;2024-02-16T01:04:35;8.93;;;2.10;;
77984;SDS011;67177;47.240;-1.546;2024-02-16T01:07:01;6.88;;;1.80;;
77984;SDS011;67177;47.240;-1.546;2024-02-16T01:09:26;8.30;;;2.30;;
77984;SDS011;67177;47.240;-1.546;2024-02-16T01:11:52;9.88;;;2.58;;
77984;SDS011;67177;47.240;-1.546;2024-02-16T01:14:18;8.90;;;2.17;;
77984;SDS011;67177;47.240;-1.546;2024-02-16T01:16:45;8.38;;;1.92;;
77984;SDS011;67177;47.240;-1.546;2024-02-16T01:19:11;7.40;;;1.70;;
77984;SDS011;67177;47.240;-1.546;2024-02-16T01:21:37;8.93;;;1.98;;
77984;SDS011;67177;47.240;-1.546;2024-02-16T01:24:03;5.93;;;1.67;;
77984;SDS011;67177;47.240;-1.546;2024-02-16T01:26:30;10.48;;;2.28;;
77984;SDS011;67177;47.240;-1.546;2024-02-16T01:28:57;6.47;;;1.40;;
77984;SDS011;67177;47.240;-1.546;2024-02-16T01:31:23;6.35;;;1.45;;
77984;SDS011;67177;47.240;-1.546;2024-02-16T01:33:49;6.50;;;1.47;;
77984;SDS011;67177;47.240;-1.546;2024-02-16T01:36:14;5.18;;;1.10;;
77984;SDS011;67177;47.240;-1.546;2024-02-16T01:38:40;5.90;;;1.40;;
77984;SDS011;67177;47.240;-1.546;2024-02-16T01:41:06;4.88;;;1.30;;
77984;SDS011;67177;47.240;-1.546;2024-02-16T01:43:33;4.57;;;1.15;;
77984;SDS011;67177;47.240;-1.546;2024-02-16T01:45:59;3.75;;;0.98;;
77984;SDS011;67177;47.240;-1.546;2024-02-16T01:48:25;6.43;;;1.23;;
77984;SDS011;67177;47.240;-1.546;2024-02-16T01:50:52;4.88;;;1.15;;
77984;SDS011;67177;47.240;-1.546;2024-02-16T01:53:19;7.55;;;1.60;;
77984;SDS011;67177;47.240;-1.546;2024-02-16T01:55:46;6.13;;;1.42;;
77984;SDS011;67177;47.240;-1.546;2024-02-16T01:58:12;9.27;;;1.90;;
77984;SDS011;67177;47.240;-1.546;2024-02-16T02:00:39;7.20;;;1.70;;
77984;SDS011;67177;47.240;-1.546;2024-02-16T02:03:06;5.90;;;1.40;;
77984;SDS011;67177;47.240;-1.546;2024-02-16T02:05:31;4.90;;;1.30;;
77984;SDS011;67177;47.240;-1.546;2024-02-16T02:07:58;9.48;;;2.30;;
77984;SDS011;67177;47.240;-1.546;2024-02-16T02:10:23;5.90;;;1.50;;
77984;SDS011;67177;47.240;-1.546;2024-02-16T02:12:49;6.40;;;1.30;;
77984;SDS011;67177;47.240;-1.546;2024-02-16T02:15:14;4.75;;;1.40;;
77984;SDS011;67177;47.240;-1.546;2024-02-16T02:17:40;5.50;;;1.30;;
77984;SDS011;67177;47.240;-1.546;2024-02-16T02:20:06;3.92;;;1.10;;
77984;SDS011;67177;47.240;-1.546;2024-02-16T02:22:35;4.13;;;1.30;;
77984;SDS011;67177;47.240;-1.546;2024-02-16T02:25:04;5.37;;;1.20;;
77984;SDS011;67177;47.240;-1.546;2024-02-16T02:27:30;5.32;;;1.30;;
77984;SDS011;67177;47.240;-1.546;2024-02-16T02:29:56;6.57;;;1.38;;
77984;SDS011;67177;47.240;-1.546;2024-02-16T02:32:23;5.68;;;1.40;;
77984;SDS011;67177;47.240;-1.546;2024-02-16T02:34:49;4.70;;;1.20;;
77984;SDS011;67177;47.240;-1.546;2024-02-16T02:37:14;4.88;;;1.33;;
77984;SDS011;67177;47.240;-1.546;2024-02-16T02:39:40;8.15;;;2.00;;
77984;SDS011;67177;47.240;-1.546;2024-02-16T02:42:06;6.37;;;1.50;;
77984;SDS011;67177;47.240;-1.546;2024-02-16T02:44:33;5.00;;;1.17;;
77984;SDS011;67177;47.240;-1.546;2024-02-16T02:46:59;8.10;;;2.10;;
77984;SDS011;67177;47.240;-1.546;2024-02-16T02:49:24;14.53;;;2.80;;
77984;SDS011;67177;47.240;-1.546;2024-02-16T02:51:50;12.20;;;2.75;;
77984;SDS011;67177;47.240;-1.546;2024-02-16T02:54:15;11.18;;;2.88;;
77984;SDS011;67177;47.240;-1.546;2024-02-16T02:56:41;12.93;;;2.57;;
77984;SDS011;67177;47.240;-1.546;2024-02-16T02:59:07;14.07;;;3.25;;
77984;SDS011;67177;47.240;-1.546;2024-02-16T03:01:34;12.20;;;3.20;;
77984;SDS011;67177;47.240;-1.546;2024-02-16T03:04:00;18.77;;;4.35;;
77984;SDS011;67177;47.240;-1.546;2024-02-16T03:06:26;10.60;;;3.33;;
77984;SDS011;67177;47.240;-1.546;2024-02-16T03:08:52;13.05;;;3.20;;
77984;SDS011;67177;47.240;-1.546;2024-02-16T03:11:18;7.45;;;2.67;;
77984;SDS011;67177;47.240;-1.546;2024-02-16T03:13:43;8.83;;;2.83;;
77984;SDS011;67177;47.240;-1.546;2024-02-16T03:16:09;12.33;;;3.10;;
77984;SDS011;67177;47.240;-1.546;2024-02-16T03:18:34;8.73;;;2.50;;
77984;SDS011;67177;47.240;-1.546;2024-02-16T03:21:00;8.40;;;2.47;;
77984;SDS011;67177;47.240;-1.546;2024-02-16T03:23:26;12.17;;;2.90;;
77984;SDS011;67177;47.240;-1.546;2024-02-16T03:25:52;13.45;;;4.25;;
77984;SDS011;67177;47.240;-1.546;2024-02-16T03:28:18;13.52;;;4.30;;
77984;SDS011;67177;47.240;-1.546;2024-02-16T03:30:45;12.13;;;3.63;;
77984;SDS011;67177;47.240;-1.546;2024-02-16T03:33:11;17.00;;;4.53;;
77984;SDS011;67177;47.240;-1.546;2024-02-16T03:35:38;13.50;;;3.85;;
77984;SDS011;67177;47.240;-1.546;2024-02-16T03:38:05;15.60;;;4.32;;
77984;SDS011;67177;47.240;-1.546;2024-02-16T03:40:31;12.63;;;3.85;;
77984;SDS011;67177;47.240;-1.546;2024-02-16T03:42:57;15.33;;;4.80;;
77984;SDS011;67177;47.240;-1.546;2024-02-16T03:45:23;12.80;;;3.72;;
77984;SDS011;67177;47.240;-1.546;2024-02-16T03:47:49;9.00;;;3.53;;
77984;SDS011;67177;47.240;-1.546;2024-02-16T03:50:17;10.48;;;2.90;;
77984;SDS011;67177;47.240;-1.546;2024-02-16T03:52:43;11.47;;;3.90;;
77984;SDS011;67177;47.240;-1.546;2024-02-16T03:55:09;9.00;;;3.40;;
77984;SDS011;67177;47.240;-1.546;2024-02-16T03:57:35;9.77;;;3.93;;
77984;SDS011;67177;47.240;-1.546;2024-02-16T04:00:01;10.73;;;3.85;;
77984;SDS011;67177;47.240;-1.546;2024-02-16T04:02:27;12.50;;;3.88;;
77984;SDS011;67177;47.240;-1.546;2024-02-16T04:04:53;13.02;;;3.95;;
77984;SDS011;67177;47.240;-1.546;2024-02-16T04:07:19;11.03;;;3.70;;
77984;SDS011;67177;47.240;-1.546;2024-02-16T04:09:44;9.60;;;4.20;;
77984;SDS011;67177;47.240;-1.546;2024-02-16T04:12:10;10.75;;;3.40;;
77984;SDS011;67177;47.240;-1.546;2024-02-16T04:14:36;9.37;;;3.57;;
77984;SDS011;67177;47.240;-1.546;2024-02-16T04:17:01;10.35;;;3.00;;
77984;SDS011;67177;47.240;-1.546;2024-02-16T04:19:27;8.23;;;2.40;;
77984;SDS011;67177;47.240;-1.546;2024-02-16T04:21:53;9.63;;;2.95;;
77984;SDS011;67177;47.240;-1.546;2024-02-16T04:24:19;8.18;;;2.30;;
77984;SDS011;67177;47.240;-1.546;2024-02-16T04:26:45;8.10;;;1.90;;
77984;SDS011;67177;47.240;-1.546;2024-02-16T04:29:11;6.43;;;1.67;;
77984;SDS011;67177;47.240;-1.546;2024-02-16T04:31:39;7.93;;;1.60;;
77984;SDS011;67177;47.240;-1.546;2024-02-16T04:34:07;5.80;;;1.55;;
77984;SDS011;67177;47.240;-1.546;2024-02-16T04:36:33;5.60;;;1.50;;
77984;SDS011;67177;47.240;-1.546;2024-02-16T04:38:59;5.30;;;1.50;;
77984;SDS011;67177;47.240;-1.546;2024-02-16T04:41:25;5.05;;;1.10;;
77984;SDS011;67177;47.240;-1.546;2024-02-16T04:43:51;6.17;;;1.60;;
77984;SDS011;67177;47.240;-1.546;2024-02-16T04:46:16;4.72;;;1.40;;
77984;SDS011;67177;47.240;-1.546;2024-02-16T04:48:42;6.83;;;1.40;;
77984;SDS011;67177;47.240;-1.546;2024-02-16T04:51:08;4.38;;;1.23;;
77984;SDS011;67177;47.240;-1.546;2024-02-16T04:53:35;6.50;;;1.60;;
77984;SDS011;67177;47.240;-1.546;2024-02-16T04:56:01;5.93;;;1.40;;
77984;SDS011;67177;47.240;-1.546;2024-02-16T04:58:27;6.78;;;1.40;;
77984;SDS011;67177;47.240;-1.546;2024-02-16T05:00:53;4.50;;;1.00;;
77984;SDS011;67177;47.240;-1.546;2024-02-16T05:03:18;6.70;;;1.17;;
77984;SDS011;67177;47.240;-1.546;2024-02-16T05:05:44;4.75;;;1.00;;
77984;SDS011;67177;47.240;-1.546;2024-02-16T05:08:10;4.00;;;1.00;;
77984;SDS011;67177;47.240;-1.546;2024-02-16T05:10:36;3.63;;;0.80;;
77984;SDS011;67177;47.240;-1.546;2024-02-16T05:13:02;3.00;;;0.70;;
77984;SDS011;67177;47.240;-1.546;2024-02-16T05:15:28;4.40;;;0.70;;
77984;SDS011;67177;47.240;-1.546;2024-02-16T05:17:54;2.05;;;0.57;;
77984;SDS011;67177;47.240;-1.546;2024-02-16T05:20:20;2.43;;;0.60;;
77984;SDS011;67177;47.240;-1.546;2024-02-16T05:22:45;2.83;;;0.75;;
77984;SDS011;67177;47.240;-1.546;2024-02-16T05:25:12;3.30;;;0.70;;
77984;SDS011;67177;47.240;-1.546;2024-02-16T05:27:38;2.50;;;0.60;;
77984;SDS011;67177;47.240;-1.546;2024-02-16T05:30:04;3.05;;;0.80;;
77984;SDS011;67177;47.240;-1.546;2024-02-16T05:32:35;3.53;;;0.80;;
77984;SDS011;67177;47.240;-1.546;2024-02-16T05:35:04;3.55;;;0.75;;
77984;SDS011;67177;47.240;-1.546;2024-02-16T05:37:42;2.73;;;0.87;;
77984;SDS011;67177;47.240;-1.546;2024-02-16T05:40:19;2.25;;;0.68;;
77984;SDS011;67177;47.240;-1.546;2024-02-16T05:42:50;4.95;;;0.90;;
77984;SDS011;67177;47.240;-1.546;2024-02-16T05:45:17;2.47;;;0.65;;
77984;SDS011;67177;47.240;-1.546;2024-02-16T05:47:43;2.70;;;0.68;;
77984;SDS011;67177;47.240;-1.546;2024-02-16T05:50:10;2.70;;;0.70;;
77984;SDS011;67177;47.240;-1.546;2024-02-16T05:52:40;2.83;;;0.70;;
77984;SDS011;67177;47.240;-1.546;2024-02-16T05:55:09;3.08;;;0.70;;
77984;SDS011;67177;47.240;-1.546;2024-02-16T05:57:36;2.55;;;0.70;;
77984;SDS011;67177;47.240;-1.546;2024-02-16T06:00:05;3.67;;;0.80;;
77984;SDS011;67177;47.240;-1.546;2024-02-16T06:02:33;3.07;;;0.80;;
77984;SDS011;67177;47.240;-1.546;2024-02-16T06:04:59;2.33;;;0.65;;
77984;SDS011;67177;47.240;-1.546;2024-02-16T06:07:25;3.45;;;0.70;;
77984;SDS011;67177;47.240;-1.546;2024-02-16T06:09:50;2.90;;;0.70;;
77984;SDS011;67177;47.240;-1.546;2024-02-16T06:12:16;3.85;;;0.73;;
77984;SDS011;67177;47.240;-1.546;2024-02-16T06:14:42;3.75;;;0.77;;
77984;SDS011;67177;47.240;-1.546;2024-02-16T06:17:08;3.20;;;0.70;;
77984;SDS011;67177;47.240;-1.546;2024-02-16T06:19:34;4.05;;;0.80;;
77984;SDS011;67177;47.240;-1.546;2024-02-16T06:22:00;2.57;;;0.70;;
77984;SDS011;67177;47.240;-1.546;2024-02-16T06:24:26;2.60;;;0.70;;
77984;SDS011;67177;47.240;-1.546;2024-02-16T06:26:52;3.22;;;0.80;;
77984;SDS011;67177;47.240;-1.546;2024-02-16T06:29:19;2.67;;;0.70;;
77984;SDS011;67177;47.240;-1.546;2024-02-16T06:31:45;4.20;;;0.70;;
77984;SDS011;67177;47.240;-1.546;2024-02-16T06:34:12;2.50;;;0.82;;
77984;SDS011;67177;47.240;-1.546;2024-02-16T06:36:41;2.60;;;0.60;;
77984;SDS011;67177;47.240;-1.546;2024-02-16T06:39:07;3.97;;;1.15;;
77984;SDS011;67177;47.240;-1.546;2024-02-16T06:41:35;2.90;;;0.85;;
77984;SDS011;67177;47.240;-1.546;2024-02-16T06:44:00;3.70;;;0.70;;
77984;SDS011;67177;47.240;-1.546;2024-02-16T06:46:26;3.63;;;1.25;;
77984;SDS011;67177;47.240;-1.546;2024-02-16T06:48:54;3.67;;;0.80;;
77984;SDS011;67177;47.240;-1.546;2024-02-16T06:51:22;5.22;;;1.58;;
77984;SDS011;67177;47.240;-1.546;2024-02-16T06:53:48;4.45;;;1.75;;
77984;SDS011;67177;47.240;-1.546;2024-02-16T06:56:14;5.63;;;1.90;;
77984;SDS011;67177;47.240;-1.546;2024-02-16T06:58:40;4.30;;;1.70;;
77984;SDS011;67177;47.240;-1.546;2024-02-16T07:01:06;4.05;;;1.38;;
77984;SDS011;67177;47.240;-1.546;2024-02-16T07:03:33;5.15;;;2.25;;
77984;SDS011;67177;47.240;-1.546;2024-02-16T07:06:01;6.00;;;2.13;;
77984;SDS011;67177;47.240;-1.546;2024-02-16T07:08:28;5.13;;;2.10;;
77984;SDS011;67177;47.240;-1.546;2024-02-16T07:10:53;5.43;;;1.65;;
77984;SDS011;67177;47.240;-1.546;2024-02-16T07:13:21;4.18;;;1.08;;
77984;SDS011;67177;47.240;-1.546;2024-02-16T07:15:47;3.77;;;1.10;;
77984;SDS011;67177;47.240;-1.546;2024-02-16T07:18:13;4.53;;;1.10;;
77984;SDS011;67177;47.240;-1.546;2024-02-16T07:20:38;3.23;;;0.70;;
77984;SDS011;67177;47.240;-1.546;2024-02-16T07:23:05;3.60;;;0.90;;
77984;SDS011;67177;47.240;-1.546;2024-02-16T07:25:30;4.28;;;0.90;;
77984;SDS011;67177;47.240;-1.546;2024-02-16T07:27:56;3.95;;;0.95;;
77984;SDS011;67177;47.240;-1.546;2024-02-16T07:30:21;3.67;;;0.80;;
77984;SDS011;67177;47.240;-1.546;2024-02-16T07:32:50;4.22;;;0.80;;
77984;SDS011;67177;47.240;-1.546;2024-02-16T07:35:17;3.60;;;0.73;;
77984;SDS011;67177;47.240;-1.546;2024-02-16T07:37:43;3.55;;;0.63;;
77984;SDS011;67177;47.240;-1.546;2024-02-16T07:40:09;4.85;;;0.70;;
77984;SDS011;67177;47.240;-1.546;2024-02-16T07:42:41;6.30;;;0.87;;
77984;SDS011;67177;47.240;-1.546;2024-02-16T07:45:07;4.22;;;0.80;;
77984;SDS011;67177;47.240;-1.546;2024-02-16T07:47:34;3.72;;;0.80;;
77984;SDS011;67177;47.240;-1.546;2024-02-16T07:50:00;6.50;;;1.20;;
77984;SDS011;67177;47.240;-1.546;2024-02-16T07:52:26;5.53;;;0.80;;
77984;SDS011;67177;47.240;-1.546;2024-02-16T07:54:52;6.70;;;0.90;;
77984;SDS011;67177;47.240;-1.546;2024-02-16T07:57:17;5.07;;;0.80;;
77984;SDS011;67177;47.240;-1.546;2024-02-16T07:59:43;5.13;;;0.90;;
77984;SDS011;67177;47.240;-1.546;2024-02-16T08:02:09;4.13;;;0.90;;
77984;SDS011;67177;47.240;-1.546;2024-02-16T08:04:35;4.60;;;0.73;;
77984;SDS011;67177;47.240;-1.546;2024-02-16T08:07:00;5.57;;;0.73;;
77984;SDS011;67177;47.240;-1.546;2024-02-16T08:09:26;4.37;;;0.97;;
77984;SDS011;67177;47.240;-1.546;2024-02-16T08:11:52;5.75;;;0.90;;
77984;SDS011;67177;47.240;-1.546;2024-02-16T08:14:18;3.00;;;0.77;;
77984;SDS011;67177;47.240;-1.546;2024-02-16T08:16:44;5.10;;;0.80;;
77984;SDS011;67177;47.240;-1.546;2024-02-16T08:19:10;10.18;;;1.20;;
77984;SDS011;67177;47.240;-1.546;2024-02-16T08:21:35;5.57;;;0.90;;
77984;SDS011;67177;47.240;-1.546;2024-02-16T08:24:01;4.20;;;0.73;;
77984;SDS011;67177;47.240;-1.546;2024-02-16T08:26:27;6.70;;;1.10;;
77984;SDS011;67177;47.240;-1.546;2024-02-16T08:28:53;7.15;;;0.90;;
77984;SDS011;67177;47.240;-1.546;2024-02-16T08:31:19;5.07;;;0.90;;
77984;SDS011;67177;47.240;-1.546;2024-02-16T08:33:45;7.45;;;1.25;;
77984;SDS011;67177;47.240;-1.546;2024-02-16T08:36:11;6.35;;;1.20;;
77984;SDS011;67177;47.240;-1.546;2024-02-16T08:38:37;7.50;;;1.00;;
77984;SDS011;67177;47.240;-1.546;2024-02-16T08:41:04;5.30;;;0.97;;
77984;SDS011;67177;47.240;-1.546;2024-02-16T08:43:30;4.43;;;0.93;;
77984;SDS011;67177;47.240;-1.546;2024-02-16T08:45:55;5.80;;;1.00;;
77984;SDS011;67177;47.240;-1.546;2024-02-16T08:48:21;6.57;;;1.20;;
77984;SDS011;67177;47.240;-1.546;2024-02-16T08:50:49;5.78;;;1.00;;
77984;SDS011;67177;47.240;-1.546;2024-02-16T08:53:15;6.83;;;1.17;;
77984;SDS011;67177;47.240;-1.546;2024-02-16T08:55:42;5.45;;;1.00;;
77984;SDS011;67177;47.240;-1.546;2024-02-16T08:58:07;6.50;;;1.00;;
77984;SDS011;67177;47.240;-1.546;2024-02-16T09:00:33;6.23;;;0.83;;
77984;SDS011;67177;47.240;-1.546;2024-02-16T09:02:59;7.10;;;1.27;;
77984;SDS011;67177;47.240;-1.546;2024-02-16T09:05:27;7.20;;;1.45;;
77984;SDS011;67177;47.240;-1.546;2024-02-16T09:07:53;5.37;;;0.90;;
77984;SDS011;67177;47.240;-1.546;2024-02-16T09:10:19;5.00;;;0.88;;
77984;SDS011;67177;47.240;-1.546;2024-02-16T09:12:45;4.75;;;0.98;;
77984;SDS011;67177;47.240;-1.546;2024-02-16T09:15:11;6.60;;;0.90;;
77984;SDS011;67177;47.240;-1.546;2024-02-16T09:17:37;12.57;;;1.73;;
77984;SDS011;67177;47.240;-1.546;2024-02-16T09:20:03;8.45;;;1.20;;
77984;SDS011;67177;47.240;-1.546;2024-02-16T09:22:29;9.75;;;1.30;;
77984;SDS011;67177;47.240;-1.546;2024-02-16T09:24:55;8.53;;;1.10;;
77984;SDS011;67177;47.240;-1.546;2024-02-16T09:27:24;6.88;;;1.27;;
77984;SDS011;67177;47.240;-1.546;2024-02-16T09:29:50;6.82;;;1.40;;
77984;SDS011;67177;47.240;-1.546;2024-02-16T09:32:17;7.22;;;1.02;;
77984;SDS011;67177;47.240;-1.546;2024-02-16T09:34:42;6.40;;;1.00;;
77984;SDS011;67177;47.240;-1.546;2024-02-16T09:37:08;6.07;;;1.13;;
77984;SDS011;67177;47.240;-1.546;2024-02-16T09:39:34;6.97;;;1.30;;
77984;SDS011;67177;47.240;-1.546;2024-02-16T09:41:59;8.67;;;1.33;;
77984;SDS011;67177;47.240;-1.546;2024-02-16T09:44:25;11.27;;;1.60;;
77984;SDS011;67177;47.240;-1.546;2024-02-16T09:46:53;10.80;;;1.13;;
77984;SDS011;67177;47.240;-1.546;2024-02-16T09:49:19;5.22;;;0.95;;
77984;SDS011;67177;47.240;-1.546;2024-02-16T09:51:45;9.17;;;1.37;;
77984;SDS011;67177;47.240;-1.546;2024-02-16T09:54:11;10.07;;;1.20;;
77984;SDS011;67177;47.240;-1.546;2024-02-16T09:56:37;5.17;;;1.00;;
77984;SDS011;67177;47.240;-1.546;2024-02-16T09:59:02;10.52;;;1.88;;
77984;SDS011;67177;47.240;-1.546;2024-02-16T10:01:28;10.70;;;1.50;;
77984;SDS011;67177;47.240;-1.546;2024-02-16T10:03:59;8.70;;;1.00;;
77984;SDS011;67177;47.240;-1.546;2024-02-16T10:06:45;7.43;;;1.00;;
77984;SDS011;67177;47.240;-1.546;2024-02-16T10:09:21;9.90;;;1.77;;
77984;SDS011;67177;47.240;-1.546;2024-02-16T10:11:51;8.50;;;1.40;;
77984;SDS011;67177;47.240;-1.546;2024-02-16T10:14:17;5.00;;;0.95;;
77984;SDS011;67177;47.240;-1.546;2024-02-16T10:16:46;5.70;;;1.02;;
77984;SDS011;67177;47.240;-1.546;2024-02-16T10:19:13;6.72;;;1.10;;
77984;SDS011;67177;47.240;-1.546;2024-02-16T10:21:39;5.53;;;1.07;;
77984;SDS011;67177;47.240;-1.546;2024-02-16T10:24:06;8.38;;;1.10;;
77984;SDS011;67177;47.240;-1.546;2024-02-16T10:26:38;7.75;;;1.15;;
77984;SDS011;67177;47.240;-1.546;2024-02-16T10:29:04;6.45;;;0.90;;
77984;SDS011;67177;47.240;-1.546;2024-02-16T10:31:33;8.23;;;1.40;;
77984;SDS011;67177;47.240;-1.546;2024-02-16T10:34:03;6.40;;;1.00;;
77984;SDS011;67177;47.240;-1.546;2024-02-16T10:36:31;6.80;;;1.00;;
77984;SDS011;67177;47.240;-1.546;2024-02-16T10:38:58;6.78;;;1.00;;
77984;SDS011;67177;47.240;-1.546;2024-02-16T10:41:27;5.10;;;1.10;;
77984;SDS011;67177;47.240;-1.546;2024-02-16T10:43:56;6.30;;;1.20;;
77984;SDS011;67177;47.240;-1.546;2024-02-16T10:46:22;6.30;;;1.00;;
77984;SDS011;67177;47.240;-1.546;2024-02-16T10:48:51;7.22;;;1.02;;
77984;SDS011;67177;47.240;-1.546;2024-02-16T10:51:19;6.87;;;1.23;;
77984;SDS011;67177;47.240;-1.546;2024-02-16T10:53:48;6.68;;;0.80;;
77984;SDS011;67177;47.240;-1.546;2024-02-16T10:56:26;7.50;;;1.23;;
77984;SDS011;67177;47.240;-1.546;2024-02-16T10:58:53;6.10;;;1.08;;
77984;SDS011;67177;47.240;-1.546;2024-02-16T11:01:19;7.57;;;1.20;;
77984;SDS011;67177;47.240;-1.546;2024-02-16T11:03:45;7.05;;;0.90;;
77984;SDS011;67177;47.240;-1.546;2024-02-16T11:06:17;6.20;;;1.10;;
77984;SDS011;67177;47.240;-1.546;2024-02-16T11:08:43;4.53;;;0.70;;
77984;SDS011;67177;47.240;-1.546;2024-02-16T11:11:09;6.57;;;0.90;;
77984;SDS011;67177;47.240;-1.546;2024-02-16T11:13:38;8.50;;;1.17;;
77984;SDS011;67177;47.240;-1.546;2024-02-16T11:16:08;8.45;;;1.05;;
77984;SDS011;67177;47.240;-1.546;2024-02-16T11:18:41;6.50;;;1.05;;
77984;SDS011;67177;47.240;-1.546;2024-02-16T11:21:15;4.90;;;0.82;;
77984;SDS011;67177;47.240;-1.546;2024-02-16T11:23:40;5.57;;;0.98;;
77984;SDS011;67177;47.240;-1.546;2024-02-16T11:26:11;5.70;;;0.80;;
77984;SDS011;67177;47.240;-1.546;2024-02-16T11:28:38;5.30;;;0.82;;
77984;SDS011;67177;47.240;-1.546;2024-02-16T11:31:05;5.35;;;0.85;;
77984;SDS011;67177;47.240;-1.546;2024-02-16T11:33:34;5.15;;;0.90;;
77984;SDS011;67177;47.240;-1.546;2024-02-16T11:36:01;7.00;;;0.95;;
77984;SDS011;67177;47.240;-1.546;2024-02-16T11:38:33;6.97;;;1.07;;
77984;SDS011;67177;47.240;-1.546;2024-02-16T11:41:00;9.80;;;1.40;;
77984;SDS011;67177;47.240;-1.546;2024-02-16T11:43:30;7.88;;;1.10;;
77984;SDS011;67177;47.240;-1.546;2024-02-16T11:46:10;6.18;;;1.00;;
77984;SDS011;67177;47.240;-1.546;2024-02-16T11:48:37;8.57;;;1.20;;
77984;SDS011;67177;47.240;-1.546;2024-02-16T11:51:03;7.93;;;0.90;;
77984;SDS011;67177;47.240;-1.546;2024-02-16T11:53:29;6.65;;;0.85;;
77984;SDS011;67177;47.240;-1.546;2024-02-16T11:55:55;6.03;;;1.00;;
77984;SDS011;67177;47.240;-1.546;2024-02-16T11:58:23;5.72;;;1.00;;
77984;SDS011;67177;47.240;-1.546;2024-02-16T12:00:49;6.07;;;1.00;;
77984;SDS011;67177;47.240;-1.546;2024-02-16T12:03:20;7.85;;;1.33;;
77984;SDS011;67177;47.240;-1.546;2024-02-16T12:05:53;5.43;;;1.00;;
77984;SDS011;67177;47.240;-1.546;2024-02-16T12:08:32;6.67;;;1.07;;
77984;SDS011;67177;47.240;-1.546;2024-02-16T12:10:59;8.23;;;1.20;;
77984;SDS011;67177;47.240;-1.546;2024-02-16T12:13:25;7.50;;;1.15;;
77984;SDS011;67177;47.240;-1.546;2024-02-16T12:15:51;6.10;;;1.00;;
77984;SDS011;67177;47.240;-1.546;2024-02-16T12:20:58;8.85;;;1.20;;
77984;SDS011;67177;47.240;-1.546;2024-02-16T12:23:27;5.25;;;1.00;;
77984;SDS011;67177;47.240;-1.546;2024-02-16T12:25:53;5.00;;;0.80;;
77984;SDS011;67177;47.240;-1.546;2024-02-16T12:28:19;7.25;;;1.20;;
77984;SDS011;67177;47.240;-1.546;2024-02-16T12:30:49;7.45;;;1.05;;
77984;SDS011;67177;47.240;-1.546;2024-02-16T12:33:14;5.90;;;1.20;;
77984;SDS011;67177;47.240;-1.546;2024-02-16T12:35:41;4.30;;;0.80;;
77984;SDS011;67177;47.240;-1.546;2024-02-16T12:38:07;7.50;;;1.05;;
77984;SDS011;67177;47.240;-1.546;2024-02-16T12:40:33;5.20;;;1.10;;
77984;SDS011;67177;47.240;-1.546;2024-02-16T12:42:58;6.88;;;1.08;;
77984;SDS011;67177;47.240;-1.546;2024-02-16T12:45:24;6.47;;;0.90;;
77984;SDS011;67177;47.240;-1.546;2024-02-16T12:47:50;5.47;;;1.20;;
77984;SDS011;67177;47.240;-1.546;2024-02-16T12:50:16;6.00;;;1.08;;
77984;SDS011;67177;47.240;-1.546;2024-02-16T12:52:44;6.63;;;1.10;;
77984;SDS011;67177;47.240;-1.546;2024-02-16T12:55:10;6.68;;;0.98;;
77984;SDS011;67177;47.240;-1.546;2024-02-16T12:57:36;5.93;;;1.00;;
77984;SDS011;67177;47.240;-1.546;2024-02-16T13:00:03;7.57;;;1.05;;
77984;SDS011;67177;47.240;-1.546;2024-02-16T13:02:29;8.55;;;1.10;;
77984;SDS011;67177;47.240;-1.546;2024-02-16T13:04:55;7.07;;;1.13;;
77984;SDS011;67177;47.240;-1.546;2024-02-16T13:07:22;6.07;;;1.10;;
77984;SDS011;67177;47.240;-1.546;2024-02-16T13:09:49;5.97;;;1.00;;
77984;SDS011;67177;47.240;-1.546;2024-02-16T13:12:16;4.22;;;0.98;;
77984;SDS011;67177;47.240;-1.546;2024-02-16T13:14:42;6.28;;;1.00;;
77984;SDS011;67177;47.240;-1.546;2024-02-16T13:17:08;7.17;;;0.87;;
77984;SDS011;67177;47.240;-1.546;2024-02-16T13:19:33;5.55;;;0.98;;
77984;SDS011;67177;47.240;-1.546;2024-02-16T13:21:59;7.50;;;1.20;;
77984;SDS011;67177;47.240;-1.546;2024-02-16T13:24:25;5.22;;;1.10;;
77984;SDS011;67177;47.240;-1.546;2024-02-16T13:26:50;6.82;;;1.10;;
77984;SDS011;67177;47.240;-1.546;2024-02-16T13:29:16;3.60;;;0.60;;
77984;SDS011;67177;47.240;-1.546;2024-02-16T13:31:41;7.30;;;1.20;;
77984;SDS011;67177;47.240;-1.546;2024-02-16T13:34:07;5.67;;;0.83;;
77984;SDS011;67177;47.240;-1.546;2024-02-16T13:36:33;6.20;;;1.00;;
77984;SDS011;67177;47.240;-1.546;2024-02-16T13:38:58;6.50;;;0.90;;
77984;SDS011;67177;47.240;-1.546;2024-02-16T13:41:24;4.82;;;0.80;;
77984;SDS011;67177;47.240;-1.546;2024-02-16T13:43:50;4.80;;;0.87;;
77984;SDS011;67177;47.240;-1.546;2024-02-16T13:46:16;6.90;;;1.17;;
77984;SDS011;67177;47.240;-1.546;2024-02-16T13:48:42;6.30;;;1.10;;
77984;SDS011;67177;47.240;-1.546;2024-02-16T13:51:08;4.00;;;1.00;;
77984;SDS011;67177;47.240;-1.546;2024-02-16T13:53:35;5.90;;;0.85;;
77984;SDS011;67177;47.240;-1.546;2024-02-16T13:56:01;4.85;;;0.90;;
77984;SDS011;67177;47.240;-1.546;2024-02-16T13:58:29;6.50;;;1.03;;
77984;SDS011;67177;47.240;-1.546;2024-02-16T14:00:55;3.72;;;0.60;;
77984;SDS011;67177;47.240;-1.546;2024-02-16T14:03:21;4.35;;;0.93;;
77984;SDS011;67177;47.240;-1.546;2024-02-16T14:05:47;5.07;;;0.90;;
77984;SDS011;67177;47.240;-1.546;2024-02-16T14:08:13;5.72;;;0.90;;
77984;SDS011;67177;47.240;-1.546;2024-02-16T14:10:40;4.82;;;0.90;;
77984;SDS011;67177;47.240;-1.546;2024-02-16T14:13:05;5.33;;;1.00;;
77984;SDS011;67177;47.240;-1.546;2024-02-16T14:15:31;3.80;;;0.73;;
77984;SDS011;67177;47.240;-1.546;2024-02-16T14:17:57;7.47;;;1.10;;
77984;SDS011;67177;47.240;-1.546;2024-02-16T14:20:23;4.75;;;0.90;;
77984;SDS011;67177;47.240;-1.546;2024-02-16T14:22:49;5.75;;;1.00;;
77984;SDS011;67177;47.240;-1.546;2024-02-16T14:25:14;4.63;;;1.10;;
77984;SDS011;67177;47.240;-1.546;2024-02-16T14:27:40;5.50;;;1.27;;
77984;SDS011;67177;47.240;-1.546;2024-02-16T14:30:07;7.00;;;1.38;;
77984;SDS011;67177;47.240;-1.546;2024-02-16T14:32:33;7.80;;;1.07;;